sensor_id;sensor_type;location;lat;lon;timestamp;pressure;altitude;pressure_sealevel;temperature;humidity
27429;BME280;14881;48.092;11.574;2022-09-12T00:01:14;95676.38;;;8.68;100.00
27429;BME280;14881;48.092;11.574;2022-09-12T00:03:42;95689.91;;;8.68;100.00
27429;BME280;14881;48.092;11.574;2022-09-12T00:06:12;95685.34;;;8.63;100.00
27429;BME280;14881;48.092;11.574;2022-09-12T00:08:52;95689.66;;;8.54;100.00
27429;BME280;14881;48.092;11.574;2022-09-12T00:11:20;95688.84;;;8.49;100.00
27429;BME280;14881;48.092;11.574;2022-09-12T00:13:48;95686.16;;;8.44;100.00
27429;BME280;14881;48.092;11.574;2022-09-12T00:16:18;95685.34;;;8.38;100.00
27429;BME280;14881;48.092;11.574;2022-09-12T00:18:46;95682.34;;;8.34;100.00
27429;BME280;14881;48.092;11.574;2022-09-12T00:21:16;95679.91;;;8.33;100.00
27429;BME280;14881;48.092;11.574;2022-09-12T00:23:45;95682.09;;;8.31;100.00
27429;BME280;14881;48.092;11.574;2022-09-12T00:26:14;95673.69;;;8.27;100.00
27429;BME280;14881;48.092;11.574;2022-09-12T00:28:43;95667.19;;;8.23;100.00
27429;BME280;14881;48.092;11.574;2022-09-12T00:31:13;95671.78;;;8.18;100.00
27429;BME280;14881;48.092;11.574;2022-09-12T00:33:41;95658.78;;;8.15;100.00
27429;BME280;14881;48.092;11.574;2022-09-12T00:36:11;95670.97;;;8.12;100.00
27429;BME280;14881;48.092;11.574;2022-09-12T00:38:40;95656.34;;;8.08;100.00
27429;BME280;14881;48.092;11.574;2022-09-12T00:41:14;95660.41;;;8.11;100.00
27429;BME280;14881;48.092;11.574;2022-09-12T00:43:44;95653.91;;;8.07;100.00
27429;BME280;14881;48.092;11.574;2022-09-12T00:46:18;95659.84;;;8.03;100.00
27429;BME280;14881;48.092;11.574;2022-09-12T00:48:55;95660.66;;;7.99;100.00
27429;BME280;14881;48.092;11.574;2022-09-12T00:51:25;95652.00;;;7.97;100.00
27429;BME280;14881;48.092;11.574;2022-09-12T00:53:54;95653.38;;;7.94;100.00
27429;BME280;14881;48.092;11.574;2022-09-12T00:56:25;95651.47;;;7.90;100.00
27429;BME280;14881;48.092;11.574;2022-09-12T00:58:57;95651.19;;;7.86;100.00
27429;BME280;14881;48.092;11.574;2022-09-12T01:01:26;95645.50;;;7.83;100.00
27429;BME280;14881;48.092;11.574;2022-09-12T01:03:58;95646.84;;;7.80;100.00
27429;BME280;14881;48.092;11.574;2022-09-12T01:06:27;95642.53;;;7.79;100.00
27429;BME280;14881;48.092;11.574;2022-09-12T01:08:55;95645.50;;;7.83;100.00
27429;BME280;14881;48.092;11.574;2022-09-12T01:11:26;95637.41;;;7.78;100.00
27429;BME280;14881;48.092;11.574;2022-09-12T01:13:54;95629.00;;;7.74;100.00
27429;BME280;14881;48.092;11.574;2022-09-12T01:16:22;95641.44;;;7.70;100.00
27429;BME280;14881;48.092;11.574;2022-09-12T01:18:57;95627.63;;;7.66;100.00
27429;BME280;14881;48.092;11.574;2022-09-12T01:21:35;95627.63;;;7.66;100.00
27429;BME280;14881;48.092;11.574;2022-09-12T01:24:49;95632.75;;;7.63;100.00
27429;BME280;14881;48.092;11.574;2022-09-12T01:27:30;95620.31;;;7.57;100.00
27429;BME280;14881;48.092;11.574;2022-09-12T01:30:24;95617.59;;;7.52;100.00
27429;BME280;14881;48.092;11.574;2022-09-12T01:33:09;95617.03;;;7.45;100.00
27429;BME280;14881;48.092;11.574;2022-09-12T01:35:44;95620.03;;;7.43;100.00
27429;BME280;14881;48.092;11.574;2022-09-12T01:38:22;95610.00;;;7.39;100.00
27429;BME280;14881;48.092;11.574;2022-09-12T01:40:58;95603.25;;;7.41;100.00
27429;BME280;14881;48.092;11.574;2022-09-12T01:43:32;95609.75;;;7.40;100.00
27429;BME280;14881;48.092;11.574;2022-09-12T01:46:08;95616.22;;;7.39;100.00
27429;BME280;14881;48.092;11.574;2022-09-12T01:48:42;95611.91;;;7.38;100.00
27429;BME280;14881;48.092;11.574;2022-09-12T01:51:17;95610.81;;;7.34;100.00
27429;BME280;14881;48.092;11.574;2022-09-12T01:53:50;95614.03;;;7.31;100.00
27429;BME280;14881;48.092;11.574;2022-09-12T01:56:23;95603.22;;;7.26;100.00
27429;BME280;14881;48.092;11.574;2022-09-12T01:58:58;95605.66;;;7.22;100.00
27429;BME280;14881;48.092;11.574;2022-09-12T02:01:30;95601.56;;;7.20;100.00
27429;BME280;14881;48.092;11.574;2022-09-12T02:04:03;95597.22;;;7.14;100.00
27429;BME280;14881;48.092;11.574;2022-09-12T02:06:37;95601.81;;;7.13;100.00
27429;BME280;14881;48.092;11.574;2022-09-12T02:09:10;95599.66;;;7.15;100.00
27429;BME280;14881;48.092;11.574;2022-09-12T02:11:42;95600.25;;;7.22;100.00
27429;BME280;14881;48.092;11.574;2022-09-12T02:14:14;95591.03;;;7.18;100.00
27429;BME280;14881;48.092;11.574;2022-09-12T02:16:47;95590.75;;;7.15;100.00
27429;BME280;14881;48.092;11.574;2022-09-12T02:19:19;95588.56;;;7.07;100.00
27429;BME280;14881;48.092;11.574;2022-09-12T02:21:51;95581.00;;;7.04;100.00
27429;BME280;14881;48.092;11.574;2022-09-12T02:24:22;95582.91;;;7.08;100.00
27429;BME280;14881;48.092;11.574;2022-09-12T02:26:54;95581.53;;;7.06;100.00
27429;BME280;14881;48.092;11.574;2022-09-12T02:29:24;95582.59;;;6.99;100.00
27429;BME280;14881;48.092;11.574;2022-09-12T02:31:56;95578.78;;;6.95;100.00
27429;BME280;14881;48.092;11.574;2022-09-12T02:34:35;95572.59;;;6.90;100.00
27429;BME280;14881;48.092;11.574;2022-09-12T02:37:14;95581.72;;;6.84;100.00
27429;BME280;14881;48.092;11.574;2022-09-12T02:39:45;95573.91;;;6.87;100.00
27429;BME280;14881;48.092;11.574;2022-09-12T02:42:12;95574.19;;;6.86;100.00
27429;BME280;14881;48.092;11.574;2022-09-12T02:44:40;95569.88;;;6.90;100.00
27429;BME280;14881;48.092;11.574;2022-09-12T02:47:14;95571.78;;;6.89;100.00
27429;BME280;14881;48.092;11.574;2022-09-12T02:49:43;95572.81;;;6.83;100.00
27429;BME280;14881;48.092;11.574;2022-09-12T02:52:11;95570.66;;;6.75;100.00
27429;BME280;14881;48.092;11.574;2022-09-12T02:54:40;95573.56;;;6.69;100.00
27429;BME280;14881;48.092;11.574;2022-09-12T02:57:15;95569.50;;;6.66;100.00
27429;BME280;14881;48.092;11.574;2022-09-12T02:59:49;95570.03;;;6.63;100.00
27429;BME280;14881;48.092;11.574;2022-09-12T03:02:27;95574.59;;;6.57;100.00
27429;BME280;14881;48.092;11.574;2022-09-12T03:05:15;95572.72;;;6.58;100.00
27429;BME280;14881;48.092;11.574;2022-09-12T03:08:03;95575.13;;;6.54;100.00
27429;BME280;14881;48.092;11.574;2022-09-12T03:10:41;95567.81;;;6.50;100.00
27429;BME280;14881;48.092;11.574;2022-09-12T03:13:21;95564.56;;;6.48;100.00
27429;BME280;14881;48.092;11.574;2022-09-12T03:16:02;95561.56;;;6.44;100.00
27429;BME280;14881;48.092;11.574;2022-09-12T03:18:43;95559.38;;;6.41;100.00
27429;BME280;14881;48.092;11.574;2022-09-12T03:21:21;95559.94;;;6.38;100.00
27429;BME280;14881;48.092;11.574;2022-09-12T03:23:59;95556.72;;;6.46;100.00
27429;BME280;14881;48.092;11.574;2022-09-12T03:26:32;95559.41;;;6.46;100.00
27429;BME280;14881;48.092;11.574;2022-09-12T03:29:03;95557.28;;;6.48;100.00
27429;BME280;14881;48.092;11.574;2022-09-12T03:31:31;95559.97;;;6.48;100.00
27429;BME280;14881;48.092;11.574;2022-09-12T03:34:01;95560.75;;;6.44;100.00
27429;BME280;14881;48.092;11.574;2022-09-12T03:36:29;95556.16;;;6.39;100.00
27429;BME280;14881;48.092;11.574;2022-09-12T03:38:57;95557.75;;;6.35;100.00
27429;BME280;14881;48.092;11.574;2022-09-12T03:41:24;95556.38;;;6.33;100.00
27429;BME280;14881;48.092;11.574;2022-09-12T03:43:52;95555.56;;;6.32;100.00
27429;BME280;14881;48.092;11.574;2022-09-12T03:46:22;95558.78;;;6.29;100.00
27429;BME280;14881;48.092;11.574;2022-09-12T03:48:50;95556.66;;;6.31;100.00
27429;BME280;14881;48.092;11.574;2022-09-12T03:51:19;95553.94;;;6.31;100.00
27429;BME280;14881;48.092;11.574;2022-09-12T03:53:46;95549.88;;;6.28;100.00
27429;BME280;14881;48.092;11.574;2022-09-12T03:56:14;95553.09;;;6.25;100.00
27429;BME280;14881;48.092;11.574;2022-09-12T03:58:43;95554.47;;;6.28;100.00
27429;BME280;14881;48.092;11.574;2022-09-12T04:01:12;95558.50;;;6.25;100.00
27429;BME280;14881;48.092;11.574;2022-09-12T04:03:41;95560.13;;;6.26;100.00
27429;BME280;14881;48.092;11.574;2022-09-12T04:06:10;95552.84;;;6.27;100.00
27429;BME280;14881;48.092;11.574;2022-09-12T04:08:41;95560.63;;;6.23;100.00
27429;BME280;14881;48.092;11.574;2022-09-12T04:11:11;95563.88;;;6.25;100.00
27429;BME280;14881;48.092;11.574;2022-09-12T04:13:41;95561.44;;;6.24;100.00
27429;BME280;14881;48.092;11.574;2022-09-12T04:16:10;95560.63;;;6.18;100.00
27429;BME280;14881;48.092;11.574;2022-09-12T04:18:38;95566.53;;;6.15;100.00
27429;BME280;14881;48.092;11.574;2022-09-12T04:21:08;95564.09;;;6.14;100.00
27429;BME280;14881;48.092;11.574;2022-09-12T04:23:36;95569.69;;;6.07;100.00
27429;BME280;14881;48.092;11.574;2022-09-12T04:26:06;95570.50;;;6.03;100.00
27429;BME280;14881;48.092;11.574;2022-09-12T04:31:12;95572.59;;;5.96;100.00
27429;BME280;14881;48.092;11.574;2022-09-12T04:33:41;95572.03;;;5.93;100.00
27429;BME280;14881;48.092;11.574;2022-09-12T04:36:10;95570.16;;;5.94;100.00
27429;BME280;14881;48.092;11.574;2022-09-12T04:38:42;95565.03;;;5.92;100.00
27429;BME280;14881;48.092;11.574;2022-09-12T04:41:14;95571.19;;;5.88;100.00
27429;BME280;14881;48.092;11.574;2022-09-12T04:43:42;95567.94;;;5.86;100.00
27429;BME280;14881;48.092;11.574;2022-09-12T04:46:12;95561.16;;;5.83;100.00
27429;BME280;14881;48.092;11.574;2022-09-12T04:48:41;95555.50;;;5.85;100.00
27429;BME280;14881;48.092;11.574;2022-09-12T04:51:10;95562.50;;;5.81;100.00
27429;BME280;14881;48.092;11.574;2022-09-12T04:53:40;95552.78;;;5.80;100.00
27429;BME280;14881;48.092;11.574;2022-09-12T04:56:09;95563.81;;;5.78;100.00
27429;BME280;14881;48.092;11.574;2022-09-12T04:58:39;95565.94;;;5.76;100.00
27429;BME280;14881;48.092;11.574;2022-09-12T05:01:09;95560.00;;;5.74;100.00
27429;BME280;14881;48.092;11.574;2022-09-12T05:03:38;95561.63;;;5.75;100.00
27429;BME280;14881;48.092;11.574;2022-09-12T05:06:07;95568.63;;;5.76;100.00
27429;BME280;14881;48.092;11.574;2022-09-12T05:08:35;95566.50;;;5.78;100.00
27429;BME280;14881;48.092;11.574;2022-09-12T05:11:04;95565.94;;;5.76;100.00
27429;BME280;14881;48.092;11.574;2022-09-12T05:13:33;95567.56;;;5.77;100.00
27429;BME280;14881;48.092;11.574;2022-09-12T05:16:03;95564.63;;;5.79;100.00
27429;BME280;14881;48.092;11.574;2022-09-12T05:18:32;95570.81;;;5.79;100.00
27429;BME280;14881;48.092;11.574;2022-09-12T05:21:02;95573.56;;;5.84;100.00
27429;BME280;14881;48.092;11.574;2022-09-12T05:23:30;95569.56;;;5.87;100.00
27429;BME280;14881;48.092;11.574;2022-09-12T05:25:59;95575.81;;;5.92;100.00
27429;BME280;14881;48.092;11.574;2022-09-12T05:28:29;95580.22;;;6.04;100.00
27429;BME280;14881;48.092;11.574;2022-09-12T05:31:02;95579.16;;;6.05;100.00
27429;BME280;14881;48.092;11.574;2022-09-12T05:33:34;95585.38;;;6.10;100.00
27429;BME280;14881;48.092;11.574;2022-09-12T05:36:04;95590.25;;;6.13;100.00
27429;BME280;14881;48.092;11.574;2022-09-12T05:38:36;95577.38;;;6.20;100.00
27429;BME280;14881;48.092;11.574;2022-09-12T05:41:05;95575.75;;;6.24;100.00
27429;BME280;14881;48.092;11.574;2022-09-12T05:43:33;95581.19;;;6.29;100.00
27429;BME280;14881;48.092;11.574;2022-09-12T05:46:03;95585.28;;;6.37;100.00
27429;BME280;14881;48.092;11.574;2022-09-12T05:48:34;95587.19;;;6.42;100.00
27429;BME280;14881;48.092;11.574;2022-09-12T05:51:04;95589.63;;;6.43;100.00
27429;BME280;14881;48.092;11.574;2022-09-12T05:53:35;95582.63;;;6.47;100.00
27429;BME280;14881;48.092;11.574;2022-09-12T05:56:07;95582.66;;;6.52;100.00
27429;BME280;14881;48.092;11.574;2022-09-12T05:58:37;95578.72;;;6.70;100.00
27429;BME280;14881;48.092;11.574;2022-09-12T06:01:08;95585.47;;;6.78;100.00
27429;BME280;14881;48.092;11.574;2022-09-12T06:03:39;95588.47;;;6.81;100.00
27429;BME280;14881;48.092;11.574;2022-09-12T06:06:08;95583.09;;;6.86;100.00
27429;BME280;14881;48.092;11.574;2022-09-12T06:08:40;95578.28;;;6.98;100.00
27429;BME280;14881;48.092;11.574;2022-09-12T06:11:10;95583.16;;;7.12;100.00
27429;BME280;14881;48.092;11.574;2022-09-12T06:13:39;95583.47;;;7.20;100.00
27429;BME280;14881;48.092;11.574;2022-09-12T06:16:10;95582.44;;;7.37;100.00
27429;BME280;14881;48.092;11.574;2022-09-12T06:18:39;95585.41;;;7.45;100.00
27429;BME280;14881;48.092;11.574;2022-09-12T06:21:08;95574.38;;;7.57;100.00
27429;BME280;14881;48.092;11.574;2022-09-12T06:23:37;95574.63;;;7.65;100.00
27429;BME280;14881;48.092;11.574;2022-09-12T06:26:07;95580.59;;;7.78;100.00
27429;BME280;14881;48.092;11.574;2022-09-12T06:28:36;95579.53;;;7.94;100.00
27429;BME280;14881;48.092;11.574;2022-09-12T06:31:06;95587.91;;;8.08;100.00
27429;BME280;14881;48.092;11.574;2022-09-12T06:33:37;95579.75;;;8.23;100.00
27429;BME280;14881;48.092;11.574;2022-09-12T06:36:09;95581.94;;;8.46;100.00
27429;BME280;14881;48.092;11.574;2022-09-12T06:38:42;95572.94;;;8.61;100.00
27429;BME280;14881;48.092;11.574;2022-09-12T06:41:12;95565.31;;;8.78;100.00
27429;BME280;14881;48.092;11.574;2022-09-12T06:43:41;95571.75;;;8.97;100.00
27429;BME280;14881;48.092;11.574;2022-09-12T06:46:09;95571.59;;;9.23;100.00
27429;BME280;14881;48.092;11.574;2022-09-12T06:48:40;95574.38;;;9.57;100.00
27429;BME280;14881;48.092;11.574;2022-09-12T06:51:10;95567.88;;;9.92;100.00
27429;BME280;14881;48.092;11.574;2022-09-12T06:53:42;95571.50;;;10.21;100.00
27429;BME280;14881;48.092;11.574;2022-09-12T06:56:12;95565.22;;;10.50;100.00
27429;BME280;14881;48.092;11.574;2022-09-12T06:58:42;95564.75;;;10.71;100.00
27429;BME280;14881;48.092;11.574;2022-09-12T07:01:12;95558.88;;;10.83;100.00
27429;BME280;14881;48.092;11.574;2022-09-12T07:03:44;95571.47;;;10.98;100.00
27429;BME280;14881;48.092;11.574;2022-09-12T07:06:15;95567.94;;;11.21;100.00
27429;BME280;14881;48.092;11.574;2022-09-12T07:08:43;95556.78;;;11.41;100.00
27429;BME280;14881;48.092;11.574;2022-09-12T07:11:12;95568.47;;;11.61;100.00
27429;BME280;14881;48.092;11.574;2022-09-12T07:13:41;95557.25;;;11.86;100.00
27429;BME280;14881;48.092;11.574;2022-09-12T07:16:10;95556.91;;;12.06;100.00
27429;BME280;14881;48.092;11.574;2022-09-12T07:18:50;95561.41;;;12.30;100.00
27429;BME280;14881;48.092;11.574;2022-09-12T07:21:18;95556.41;;;12.50;100.00
27429;BME280;14881;48.092;11.574;2022-09-12T07:23:46;95557.06;;;12.61;100.00
27429;BME280;14881;48.092;11.574;2022-09-12T07:26:15;95549.78;;;12.70;100.00
27429;BME280;14881;48.092;11.574;2022-09-12T07:28:43;95550.09;;;12.82;100.00
27429;BME280;14881;48.092;11.574;2022-09-12T07:31:13;95545.97;;;12.99;100.00
27429;BME280;14881;48.092;11.574;2022-09-12T07:33:42;95550.09;;;13.10;100.00
27429;BME280;14881;48.092;11.574;2022-09-12T07:36:13;95550.50;;;13.31;100.00
27429;BME280;14881;48.092;11.574;2022-09-12T07:38:42;95552.41;;;13.44;100.00
27429;BME280;14881;48.092;11.574;2022-09-12T07:41:10;95551.16;;;13.64;100.00
27429;BME280;14881;48.092;11.574;2022-09-12T07:43:41;95547.06;;;13.75;100.00
27429;BME280;14881;48.092;11.574;2022-09-12T07:46:09;95551.91;;;13.78;100.00
27429;BME280;14881;48.092;11.574;2022-09-12T07:48:38;95546.84;;;13.85;100.00
27429;BME280;14881;48.092;11.574;2022-09-12T07:51:11;95550.53;;;13.89;100.00
27429;BME280;14881;48.092;11.574;2022-09-12T07:53:40;95549.31;;;13.95;100.00
27429;BME280;14881;48.092;11.574;2022-09-12T07:56:09;95544.59;;;14.09;100.00
27429;BME280;14881;48.092;11.574;2022-09-12T07:58:39;95548.44;;;14.31;100.00
27429;BME280;14881;48.092;11.574;2022-09-12T08:01:08;95548.47;;;14.53;100.00
27429;BME280;14881;48.092;11.574;2022-09-12T08:03:38;95543.06;;;14.70;100.00
27429;BME280;14881;48.092;11.574;2022-09-12T08:06:07;95547.50;;;14.88;100.00
27429;BME280;14881;48.092;11.574;2022-09-12T08:08:37;95541.44;;;15.00;100.00
27429;BME280;14881;48.092;11.574;2022-09-12T08:11:07;95540.94;;;15.07;100.00
27429;BME280;14881;48.092;11.574;2022-09-12T08:13:37;95546.41;;;15.07;100.00
27429;BME280;14881;48.092;11.574;2022-09-12T08:16:07;95543.22;;;15.05;100.00
27429;BME280;14881;48.092;11.574;2022-09-12T08:18:35;95554.81;;;15.10;100.00
27429;BME280;14881;48.092;11.574;2022-09-12T08:21:11;95545.69;;;15.23;100.00
27429;BME280;14881;48.092;11.574;2022-09-12T08:23:40;95551.19;;;15.32;100.00
27429;BME280;14881;48.092;11.574;2022-09-12T08:26:10;95539.44;;;15.49;100.00
27429;BME280;14881;48.092;11.574;2022-09-12T08:28:38;95543.38;;;15.65;100.00
27429;BME280;14881;48.092;11.574;2022-09-12T08:31:09;95546.75;;;15.79;100.00
27429;BME280;14881;48.092;11.574;2022-09-12T08:33:37;95540.50;;;15.87;100.00
27429;BME280;14881;48.092;11.574;2022-09-12T08:36:06;95539.66;;;15.95;100.00
27429;BME280;14881;48.092;11.574;2022-09-12T08:38:37;95542.28;;;16.09;100.00
27429;BME280;14881;48.092;11.574;2022-09-12T08:41:13;95546.28;;;16.20;100.00
27429;BME280;14881;48.092;11.574;2022-09-12T08:43:55;95541.91;;;16.28;100.00
27429;BME280;14881;48.092;11.574;2022-09-12T08:46:30;95542.34;;;16.47;100.00
27429;BME280;14881;48.092;11.574;2022-09-12T08:49:01;95537.50;;;16.53;100.00
27429;BME280;14881;48.092;11.574;2022-09-12T08:51:32;95543.31;;;16.60;100.00
27429;BME280;14881;48.092;11.574;2022-09-12T08:54:01;95535.88;;;16.78;100.00
27429;BME280;14881;48.092;11.574;2022-09-12T08:56:35;95541.09;;;17.00;100.00
27429;BME280;14881;48.092;11.574;2022-09-12T08:59:03;95535.00;;;17.24;100.00
27429;BME280;14881;48.092;11.574;2022-09-12T09:01:34;95542.69;;;17.39;100.00
27429;BME280;14881;48.092;11.574;2022-09-12T09:04:34;95527.72;;;17.57;100.00
27429;BME280;14881;48.092;11.574;2022-09-12T09:07:24;95524.59;;;17.67;100.00
27429;BME280;14881;48.092;11.574;2022-09-12T09:10:10;95527.81;;;17.90;100.00
27429;BME280;14881;48.092;11.574;2022-09-12T09:12:49;95516.69;;;18.07;100.00
27429;BME280;14881;48.092;11.574;2022-09-12T09:15:33;95521.09;;;18.21;100.00
27429;BME280;14881;48.092;11.574;2022-09-12T09:18:11;95519.41;;;18.28;100.00
27429;BME280;14881;48.092;11.574;2022-09-12T09:20:46;95515.34;;;18.47;100.00
27429;BME280;14881;48.092;11.574;2022-09-12T09:23:21;95513.94;;;18.40;100.00
27429;BME280;14881;48.092;11.574;2022-09-12T09:25:57;95511.03;;;18.25;100.00
27429;BME280;14881;48.092;11.574;2022-09-12T09:28:32;95505.13;;;18.47;100.00
27429;BME280;14881;48.092;11.574;2022-09-12T09:31:03;95502.91;;;18.61;100.00
27429;BME280;14881;48.092;11.574;2022-09-12T09:33:33;95494.25;;;18.51;100.00
27429;BME280;14881;48.092;11.574;2022-09-12T09:36:08;95490.72;;;18.50;100.00
27429;BME280;14881;48.092;11.574;2022-09-12T09:38:47;95493.53;;;18.41;100.00
27429;BME280;14881;48.092;11.574;2022-09-12T09:41:31;95502.34;;;18.68;100.00
27429;BME280;14881;48.092;11.574;2022-09-12T09:44:03;95497.91;;;18.55;100.00
27429;BME280;14881;48.092;11.574;2022-09-12T09:46:31;95502.63;;;18.54;100.00
27429;BME280;14881;48.092;11.574;2022-09-12T09:49:00;95497.66;;;18.68;100.00
27429;BME280;14881;48.092;11.574;2022-09-12T09:51:33;95492.28;;;18.96;100.00
27429;BME280;14881;48.092;11.574;2022-09-12T09:54:07;95498.94;;;18.95;100.00
27429;BME280;14881;48.092;11.574;2022-09-12T09:56:39;95489.31;;;19.13;100.00
27429;BME280;14881;48.092;11.574;2022-09-12T09:59:10;95494.69;;;19.59;100.00
27429;BME280;14881;48.092;11.574;2022-09-12T10:01:45;95491.97;;;19.99;100.00
27429;BME280;14881;48.092;11.574;2022-09-12T10:04:18;95492.00;;;20.14;100.00
27429;BME280;14881;48.092;11.574;2022-09-12T10:06:46;95491.38;;;20.05;100.00
27429;BME280;14881;48.092;11.574;2022-09-12T10:09:20;95492.13;;;20.18;100.00
27429;BME280;14881;48.092;11.574;2022-09-12T10:11:49;95493.97;;;20.14;100.00
27429;BME280;14881;48.092;11.574;2022-09-12T10:14:29;95487.66;;;20.85;100.00
27429;BME280;14881;48.092;11.574;2022-09-12T10:16:57;95489.97;;;21.30;100.00
27429;BME280;14881;48.092;11.574;2022-09-12T10:19:33;95483.38;;;21.03;100.00
27429;BME280;14881;48.092;11.574;2022-09-12T10:22:02;95480.50;;;21.00;100.00
27429;BME280;14881;48.092;11.574;2022-09-12T10:24:33;95472.59;;;21.30;100.00
27429;BME280;14881;48.092;11.574;2022-09-12T10:27:08;95475.38;;;21.84;100.00
27429;BME280;14881;48.092;11.574;2022-09-12T10:29:44;95473.25;;;22.51;100.00
27429;BME280;14881;48.092;11.574;2022-09-12T10:32:21;95464.94;;;22.93;95.66
27429;BME280;14881;48.092;11.574;2022-09-12T10:34:58;95463.78;;;22.75;97.68
27429;BME280;14881;48.092;11.574;2022-09-12T10:37:30;95462.53;;;23.14;98.99
27429;BME280;14881;48.092;11.574;2022-09-12T10:40:00;95464.41;;;23.33;100.00
27429;BME280;14881;48.092;11.574;2022-09-12T10:42:48;95462.44;;;23.34;94.68
27429;BME280;14881;48.092;11.574;2022-09-12T10:45:23;95464.03;;;23.35;100.00
27429;BME280;14881;48.092;11.574;2022-09-12T10:47:55;95464.34;;;23.52;100.00
27429;BME280;14881;48.092;11.574;2022-09-12T10:50:31;95465.94;;;23.31;100.00
27429;BME280;14881;48.092;11.574;2022-09-12T10:53:18;95457.84;;;23.18;98.57
27429;BME280;14881;48.092;11.574;2022-09-12T10:56:03;95452.22;;;23.15;95.36
27429;BME280;14881;48.092;11.574;2022-09-12T10:59:01;95455.25;;;23.55;100.00
27429;BME280;14881;48.092;11.574;2022-09-12T11:01:38;95455.91;;;23.22;86.81
27429;BME280;14881;48.092;11.574;2022-09-12T11:04:27;95444.94;;;23.82;100.00
27429;BME280;14881;48.092;11.574;2022-09-12T11:13:04;95441.72;;;24.40;91.82
27429;BME280;14881;48.092;11.574;2022-09-12T11:15:48;95447.66;;;24.76;83.18
27429;BME280;14881;48.092;11.574;2022-09-12T11:18:35;95453.31;;;23.33;88.05
27429;BME280;14881;48.092;11.574;2022-09-12T11:21:33;95446.91;;;23.03;89.69
27429;BME280;14881;48.092;11.574;2022-09-12T11:27:31;95439.53;;;23.14;90.91
27429;BME280;14881;48.092;11.574;2022-09-12T11:30:08;95439.22;;;23.19;100.00
27429;BME280;14881;48.092;11.574;2022-09-12T11:32:56;95432.56;;;23.76;98.16
27429;BME280;14881;48.092;11.574;2022-09-12T11:35:30;95439.63;;;22.95;90.71
27429;BME280;14881;48.092;11.574;2022-09-12T11:38:13;95433.28;;;22.29;94.22
27429;BME280;14881;48.092;11.574;2022-09-12T11:40:52;95432.72;;;22.43;95.34
27429;BME280;14881;48.092;11.574;2022-09-12T11:43:27;95427.81;;;23.24;99.20
27429;BME280;14881;48.092;11.574;2022-09-12T11:46:00;95432.47;;;23.16;92.86
27429;BME280;14881;48.092;11.574;2022-09-12T11:48:39;95429.00;;;23.49;90.67
27429;BME280;14881;48.092;11.574;2022-09-12T11:51:16;95431.38;;;23.51;94.28
27429;BME280;14881;48.092;11.574;2022-09-12T11:53:58;95426.91;;;23.99;100.00
27429;BME280;14881;48.092;11.574;2022-09-12T11:56:27;95427.88;;;24.14;88.99
27429;BME280;14881;48.092;11.574;2022-09-12T11:58:59;95429.44;;;23.51;88.79
27429;BME280;14881;48.092;11.574;2022-09-12T12:01:31;95425.94;;;23.54;91.37
27429;BME280;14881;48.092;11.574;2022-09-12T12:04:10;95421.59;;;23.87;89.52
27429;BME280;14881;48.092;11.574;2022-09-12T12:06:48;95427.13;;;24.17;89.71
27429;BME280;14881;48.092;11.574;2022-09-12T12:09:17;95419.44;;;24.37;91.91
27429;BME280;14881;48.092;11.574;2022-09-12T12:11:47;95422.50;;;23.65;83.90
27429;BME280;14881;48.092;11.574;2022-09-12T12:14:22;95420.47;;;23.91;86.99
27429;BME280;14881;48.092;11.574;2022-09-12T12:16:51;95420.09;;;23.63;90.14
27429;BME280;14881;48.092;11.574;2022-09-12T12:19:30;95418.31;;;23.78;95.70
27429;BME280;14881;48.092;11.574;2022-09-12T12:22:11;95423.00;;;24.04;89.85
27429;BME280;14881;48.092;11.574;2022-09-12T12:25:00;95415.44;;;23.44;87.80
27429;BME280;14881;48.092;11.574;2022-09-12T12:27:55;95417.66;;;22.82;86.58
27429;BME280;14881;48.092;11.574;2022-09-12T12:30:58;95410.78;;;22.76;96.00
27429;BME280;14881;48.092;11.574;2022-09-12T12:33:53;95416.00;;;22.58;89.07
27429;BME280;14881;48.092;11.574;2022-09-12T12:36:36;95409.28;;;22.60;89.60
27429;BME280;14881;48.092;11.574;2022-09-12T12:46:05;95404.72;;;21.86;100.00
27429;BME280;14881;48.092;11.574;2022-09-12T12:49:06;95407.97;;;21.53;97.71
27429;BME280;14881;48.092;11.574;2022-09-12T12:51:39;95395.53;;;21.82;99.08
27429;BME280;14881;48.092;11.574;2022-09-12T12:57:25;95396.19;;;21.76;98.11
27429;BME280;14881;48.092;11.574;2022-09-12T12:59:56;95389.59;;;21.80;95.81
27429;BME280;14881;48.092;11.574;2022-09-12T13:02:30;95392.28;;;21.96;91.64
27429;BME280;14881;48.092;11.574;2022-09-12T13:05:03;95395.16;;;21.84;98.66
27429;BME280;14881;48.092;11.574;2022-09-12T13:07:35;95388.56;;;22.08;100.00
27429;BME280;14881;48.092;11.574;2022-09-12T13:10:06;95383.97;;;21.96;96.23
27429;BME280;14881;48.092;11.574;2022-09-12T13:12:36;95383.44;;;21.91;96.39
27429;BME280;14881;48.092;11.574;2022-09-12T13:15:46;95385.78;;;22.27;100.00
27429;BME280;14881;48.092;11.574;2022-09-12T13:18:20;95382.59;;;22.48;100.00
27429;BME280;14881;48.092;11.574;2022-09-12T13:20:53;95379.00;;;22.25;97.55
27429;BME280;14881;48.092;11.574;2022-09-12T13:23:23;95373.16;;;22.30;96.90
27429;BME280;14881;48.092;11.574;2022-09-12T13:25:52;95366.50;;;22.34;97.67
27429;BME280;14881;48.092;11.574;2022-09-12T13:28:21;95363.00;;;22.37;96.00
27429;BME280;14881;48.092;11.574;2022-09-12T13:30:56;95353.59;;;22.00;93.66
27429;BME280;14881;48.092;11.574;2022-09-12T13:33:35;95353.03;;;22.10;91.21
27429;BME280;14881;48.092;11.574;2022-09-12T13:36:19;95358.03;;;22.46;95.33
27429;BME280;14881;48.092;11.574;2022-09-12T13:39:00;95356.47;;;22.95;88.03
27429;BME280;14881;48.092;11.574;2022-09-12T13:41:43;95343.34;;;22.91;95.34